Aeroporto :
LOGIN :

Iscrizione | Disclaimer

   EN    FR    IT 

 










Sommario :    VFR   VFR Marginale   IFR   IFR Intensivo   IFR Molto Intensivo
Visibilità : 
Base nubi : 
>= 8 km
>= 3000ft
5 / 8 km
1000 / 3000 ft
1500m / 5 km
500 / 1000 ft
800 / 1500m
200 / 500 ft
< 800m
< 200 ft
Simboli :   Temporali  Nebbia  Neve Forte  Precipitazioni Forti  Vento > 20 kt
SIGMETs :   Varie  Temporali  Ghiacco  Turbolenza  Onda orograficha  Ceneri Vulcaniche






- Altitudine del aeroporto : 256 ft
- Codice IATA : GOJ


UWGG - Nizhny Novgorod International

ULTIMO METAR :
  • 020230Z 07004MPS CAVOK 09/02 Q1017 R36R/090070 NOSIG

METARs OBSOLETI :
  • 020200Z 07004MPS CAVOK 09/02 Q1018 R36R/090070 NOSIG
  • 020130Z 07005MPS CAVOK 08/02 Q1017 R36R/090070 NOSIG
  • 020100Z 08004MPS CAVOK 08/03 Q1017 R36R/090070 NOSIG
  • 020030Z 08004MPS CAVOK 09/03 Q1017 R36R/090070 NOSIG
  • 020000Z 07006MPS CAVOK 09/03 Q1017 R36R/090070 NOSIG

TAF TAF UWGG
Valido dal 02 a 03 ore il 03 a 03 ore UTC


020150Z 0203/0303 06005MPS 9999 BKN020 TX15/0212Z TN08/0203Z
TEMPO 0204/0218 09006G14MPS -SHRA BKN012CB



MetMap, La meteo Aeronautica in un colpo d'occhio ! - Copyright ORBIFLY Dicembre 2007 - Disclaimer

ORBIFLY MET'MAP TEAM :

Programmazione e sviluppo : Alexandra Zaïnal
Concezione : Baudouin d'Aumeries
Aiuto per la programmazione : Marc-Olivier Méhu
Supporto tecnico e logistico : Manuel Goepfert
Aiuto per la traduzione : Arnaldo La Scala

Contatto : metmap@orbifly.com




FONTI E CREDITI :

   NOAA